TAFOR
Diposting tanggal: 10 Juni 2019

Pukul : 06 - 18 UTC

Isi :

TAF WAGI 190500Z 1906/1918 10006KT 9000 SCT013=